x

Shumagin Islands - 85nm South Of Sand Point, Ak (46075) Wave Buoy

3:50am - Mon 28th Jul 2014 All times are UTC.

  • Sig Wave height 2.6ft
  • Peak Period 5s
  • Average Period 4s
  • Wind
    13mph, 16mph gusts
  • Sea Temp 55°f
  • Air Temp 55°f
  • Sea Pressure 1020.3mb

More Historic Weather Station data

Upgrade to MSW Pro to gain access to the past 30 days of data for over 8000 Wavebouys and Weather Stations around the globe.

Join Pro

Comparision Forecast

View Surf forecast
   
Mon 07/28 3:50am 2.5ft 5s 4s 13 16 mph 1020.3mb 55f 55f
2:50am 2.5ft 5s 4s 16 20 mph 1020.4mb 55f 55f
1:50am 2.5ft 5s 4s 13 16 mph 1020.4mb 55f 55f
12:50am 2.5ft 6s 4s 13
mph
1020.3mb 55f 55f
Sun 07/27 11:50pm 2.5ft 5s 5s 11 13 mph 1020.5mb 55f 55f
Sat 07/26 8:50pm 2.5ft 6s 5s 13 16 mph 1017.3mb 55f 54f
7:50pm 3.5ft 6s 5s 9 11 mph 1017.3mb 55f 54f
6:50pm 3.5ft 6s 5s 7
mph
1017.7mb 55f 55f
5:50pm 3.5ft 6s 5s 9 11 mph 1017.8mb 55f 54f
4:50pm 3.5ft 6s 5s 7 9 mph 1017.6mb 55f 54f
3:50pm 3.5ft 6s 4s 9 11 mph 1017.5mb 55f 54f
2:50pm 3.5ft 6s 5s 11 13 mph 1017.4mb 55f 55f
1:50pm 3.5ft 5s 5s 9 11 mph 1017.4mb 55f 55f
12:50pm 3.5ft 5s 5s 9 11 mph 1017.4mb 55f 55f
11:50am 4ft 6s 5s 9
mph
1017.6mb 55f 55f
10:50am 4.5ft 6s 5s 9
mph
1017.9mb 55f 55f
9:50am 4.5ft 6s 5s 4 7 mph 1017.8mb 55f 55f
8:50am 4.5ft 6s 5s 13
mph
1017.7mb 55f 55f
7:50am 4.5ft 6s 5s 9
mph
1017.8mb 55f 56f
6:50am 5ft 7s 5s 2 4 mph 1017.8mb 55f 56f
5:50am 5ft 7s 5s 11 13 mph 1017.2mb 55f 56f
4:50am 5.5ft 6s 5s 9 11 mph 1017.3mb 55f 56f
3:50am 5ft 7s 5s 13 18 mph 1017.1mb 55f 56f
2:50am 5ft 6s 5s 13 20 mph 1017mb 55f 57f
1:50am 5.5ft 6s 5s 18 20 mph 1017.1mb 55f 56f
12:50am 6ft 6s 5s 16 20 mph 1017.4mb 55f 56f
Fri 07/25 11:50pm 5ft 7s 5s 20 25 mph 1016.9mb 55f 56f
10:50pm 5ft 6s 5s 20 25 mph 1017.1mb 55f 55f
9:50pm 5.5ft 7s 5s 18 22 mph 1016.7mb 55f 55f
8:50pm 6ft 6s 5s 13 18 mph 1017.4mb 55f 55f
7:50pm 6ft 7s 5s 18 25 mph 1016.8mb 55f 55f
6:50pm 5ft 7s 5s 13 18 mph 1017.3mb 55f 55f
5:50pm 5.5ft 6s 5s 9 11 mph 1017.2mb 54f 55f
4:50pm 6ft 7s 6s 13 16 mph 1016.3mb 54f 54f
3:50pm 6ft 8s 5s 18 22 mph 1016.1mb 54f 53f
2:50pm 6ft 7s 5s 16 22 mph 1016.4mb 54f 54f
1:50pm 6ft 7s 5s 20 25 mph 1015.9mb 54f 54f
12:50pm 5ft 7s 5s 20 25 mph 1015.9mb 54f 54f
11:50am 6ft 8s 5s 16 18 mph 1016.3mb 54f 54f
10:50am 5.5ft 8s 5s 20 25 mph 1016mb 55f 54f
9:50am 5.5ft 7s 5s 20 25 mph 1016mb 55f 54f
8:50am 5.5ft 7s 5s 16 22 mph 1016mb 54f 54f
7:50am 5ft 7s 5s 16 18 mph 1016.3mb 54f 54f
6:50am 5ft 8s 5s 18 22 mph 1015.9mb 54f 54f
5:50am 5ft 7s 5s 16 20 mph 1016mb 54f 54f
4:50am 6ft 6s 5s 16 18 mph 1015.7mb 55f 55f
3:50am 6ft 7s 5s 13 16 mph 1015.7mb 55f 54f
2:50am 5.5ft 6s 5s 18 20 mph 1015.9mb 55f 54f
1:50am 5ft 7s 5s 20 22 mph 1015.7mb 55f 54f
12:50am 6ft 7s 5s 18 22 mph 1015.7mb 54f 54f
Thu 07/24 11:50pm 5ft 6s 5s 18 22 mph 1015.9mb 54f 53f
10:50pm 5ft 7s 5s 18 22 mph 1016.1mb 54f 53f
9:50pm 5ft 7s 5s 16 18 mph 1016.4mb 54f 54f
8:50pm 5ft 7s 5s 18 22 mph 1016.2mb 54f 53f
7:50pm 5ft 6s 5s 20 25 mph 1016.1mb 54f 53f
6:50pm 5ft 6s 5s 20 25 mph 1016.2mb 54f 53f
5:50pm 5.5ft 7s 5s 22 25 mph 1016.6mb 54f 53f
4:50pm 6ft 6s 5s 25 29 mph 1016.8mb 54f 53f
3:50pm 6.5ft 6s 5s 25 31 mph 1017.1mb 54f 53f
2:50pm 6ft 6s 5s 22 27 mph 1017.2mb 54f 53f
1:50pm 5.5ft 7s 5s 22 27 mph 1017.5mb 54f 53f
12:50pm 5ft 7s 5s 18 22 mph 1018mb 54f 53f
11:50am 5ft 7s 5s 18 22 mph 1018.3mb 54f 53f
10:50am 4.5ft 6s 5s 18 20 mph 1018.6mb 54f 53f
9:50am 5ft 7s 5s 16 20 mph 1019mb 54f 53f
8:50am 5ft 8s 5s 18 22 mph 1019.2mb 55f 54f
7:50am 4.5ft 7s 5s 18 22 mph 1019.1mb 55f 54f
6:50am 5ft 7s 5s 16 20 mph 1019.1mb 55f 54f
5:50am 4.5ft 6s 5s 18 22 mph 1019.1mb 55f 54f
4:50am 5.5ft 6s 5s 20 22 mph 1019.1mb 55f 54f